Time;durP1;ratioP1;P1;durP2;ratioP2;P2;SDS_P1;SDS_P2;PMS_P1;PMS_P2;Temp;Humidity;BMP_temperature;BMP_pressure;BME280_temperature;BME280_humidity;BME280_pressure;Samples;Min_cycle;Max_cycle;Signal;HPM_P1;HPM_P2
2023/05/31 00:01:56;;;;;;;7.50;3.90;;;10.90;99.90;;;;;;5108000;28;20514;-87
2023/05/31 00:04:21;;;;;;;8.00;4.17;;;10.80;99.90;;;;;;5106717;28;20400;-88
2023/05/31 00:06:47;;;;;;;7.10;3.72;;;11.00;99.90;;;;;;5107044;28;20400;-87
2023/05/31 00:09:13;;;;;;;8.23;4.10;;;10.70;99.90;;;;;;5090920;28;21249;-87
2023/05/31 00:11:38;;;;;;;8.15;4.10;;;10.60;99.90;;;;;;5090525;28;20446;-87
2023/05/31 00:14:04;;;;;;;8.47;4.43;;;10.90;99.90;;;;;;5107420;28;20396;-87
2023/05/31 00:16:29;;;;;;;7.50;4.25;;;10.60;99.90;;;;;;5090202;28;20411;-87
2023/05/31 00:18:55;;;;;;;8.63;4.27;;;10.50;99.90;;;;;;5090134;28;20443;-87
2023/05/31 00:21:21;;;;;;;8.73;4.37;;;10.80;99.90;;;;;;5107036;28;20420;-87
2023/05/31 00:23:47;;;;;;;7.38;4.13;;;10.40;99.90;;;;;;5111657;27;20498;-87
2023/05/31 00:26:13;;;;;;;7.05;3.80;;;10.30;99.90;;;;;;5127844;27;20403;-87
2023/05/31 00:28:38;;;;;;;8.70;5.03;;;10.30;99.90;;;;;;5110545;27;20410;-87
2023/05/31 00:31:04;;;;;;;10.03;4.93;;;10.20;99.90;;;;;;5110704;27;20441;-87
2023/05/31 00:33:30;;;;;;;10.75;5.90;;;10.10;99.90;;;;;;5127606;27;20411;-87
2023/05/31 00:35:55;;;;;;;9.90;5.33;;;10.10;99.90;;;;;;5127197;27;20444;-88
2023/05/31 00:38:21;;;;;;;8.63;5.18;;;10.00;99.90;;;;;;5127706;27;20434;-88
2023/05/31 00:40:47;;;;;;;10.53;5.27;;;10.00;99.90;;;;;;5109661;27;20426;-87
2023/05/31 00:43:13;;;;;;;11.10;6.20;;;9.90;99.90;;;;;;5110650;27;20774;-88
2023/05/31 00:45:39;;;;;;;11.10;6.15;;;9.80;99.90;;;;;;5126897;27;20399;-87
2023/05/31 00:48:05;;;;;;;11.83;6.03;;;9.70;99.90;;;;;;5110934;27;20885;-87
2023/05/31 00:50:31;;;;;;;11.73;6.53;;;9.70;99.90;;;;;;5110122;27;20391;-88
2023/05/31 00:52:59;;;;;;;12.57;6.95;;;9.60;99.90;;;;;;5127396;27;20535;-88
2023/05/31 00:55:25;;;;;;;13.00;7.03;;;9.60;99.90;;;;;;5110441;27;20397;-87
2023/05/31 00:57:51;;;;;;;10.43;5.57;;;9.50;99.90;;;;;;5126799;27;20435;-89
2023/05/31 01:00:17;;;;;;;9.63;5.93;;;9.50;99.90;;;;;;5126959;27;20431;-87
2023/05/31 01:02:43;;;;;;;9.37;5.77;;;9.40;99.90;;;;;;5109709;27;20792;-86
2023/05/31 01:05:09;;;;;;;12.80;6.90;;;9.30;99.90;;;;;;5127199;27;20457;-87
2023/05/31 01:07:35;;;;;;;11.00;6.47;;;9.60;99.90;;;;;;5110006;27;20474;-88
2023/05/31 01:10:06;;;;;;;9.15;5.47;;;9.20;99.90;;;;;;5109873;27;20466;-88
2023/05/31 01:12:47;;;;;;;9.88;5.03;;;9.10;99.90;;;;;;5126772;27;20415;-87
2023/05/31 01:15:22;;;;;;;9.27;5.60;;;9.00;99.90;;;;;;5108975;27;20923;-88
2023/05/31 01:17:59;;;;;;;7.20;4.60;;;8.90;99.90;;;;;;5109980;27;20897;-87
2023/05/31 01:20:28;;;;;;;9.25;5.70;;;8.90;99.90;;;;;;5126312;27;20951;-88
2023/05/31 01:23:27;;;;;;;10.77;6.22;;;8.80;99.90;;;;;;5109451;27;20742;-88
2023/05/31 01:26:13;;;;;;;10.48;5.72;;;8.80;99.90;;;;;;5109858;27;20407;-87
2023/05/31 01:28:41;;;;;;;9.40;6.37;;;8.80;99.90;;;;;;5109345;27;20826;-87
2023/05/31 01:31:14;;;;;;;12.60;6.60;;;8.70;99.90;;;;;;5109635;27;20406;-88
2023/05/31 01:33:41;;;;;;;8.95;5.65;;;8.70;99.90;;;;;;5126149;27;20439;-88
2023/05/31 01:36:06;;;;;;;10.15;6.38;;;8.90;99.90;;;;;;5109646;27;20399;-88
2023/05/31 01:38:32;;;;;;;11.10;5.40;;;8.60;99.90;;;;;;5109519;27;20417;-87
2023/05/31 01:40:57;;;;;;;10.13;5.60;;;8.60;99.90;;;;;;5109039;27;20475;-87
2023/05/31 01:43:25;;;;;;;8.65;5.22;;;8.50;99.90;;;;;;5109228;27;20411;-87
2023/05/31 01:45:53;;;;;;;8.47;4.97;;;8.40;99.90;;;;;;5109035;27;20886;-88
2023/05/31 01:48:19;;;;;;;7.53;5.20;;;8.30;99.90;;;;;;5126566;27;20749;-87
2023/05/31 01:50:45;;;;;;;8.20;4.70;;;8.30;99.90;;;;;;5109189;27;20974;-87
2023/05/31 01:53:11;;;;;;;8.48;4.97;;;8.30;99.90;;;;;;5109310;27;20437;-89
2023/05/31 01:55:37;;;;;;;7.90;4.90;;;8.30;99.90;;;;;;5109450;27;20772;-88
2023/05/31 01:58:05;;;;;;;9.45;5.43;;;8.30;99.90;;;;;;5108619;27;20398;-88
2023/05/31 02:00:31;;;;;;;10.07;5.32;;;8.30;99.90;;;;;;5108913;27;20422;-87
2023/05/31 02:02:57;;;;;;;10.57;6.10;;;8.30;99.90;;;;;;5108146;27;20495;-88
2023/05/31 02:05:23;;;;;;;12.90;7.33;;;8.30;99.90;;;;;;5108792;27;20424;-87
2023/05/31 02:07:49;;;;;;;10.00;5.77;;;8.30;99.90;;;;;;5108677;27;20398;-88
2023/05/31 02:10:15;;;;;;;11.07;6.30;;;8.40;99.90;;;;;;5108939;28;20402;-89
2023/05/31 02:12:41;;;;;;;13.33;7.27;;;8.30;99.90;;;;;;5126009;27;20398;-88
2023/05/31 02:15:12;;;;;;;16.33;9.07;;;8.50;99.90;;;;;;5108725;27;20406;-88
2023/05/31 02:17:44;;;;;;;11.00;6.93;;;8.40;99.90;;;;;;5125588;27;20406;-88
2023/05/31 02:20:14;;;;;;;12.18;7.30;;;8.30;99.90;;;;;;5125780;27;20749;-88
2023/05/31 02:22:45;;;;;;;11.55;8.02;;;8.30;99.90;;;;;;5109335;27;20511;-88
2023/05/31 02:25:12;;;;;;;13.20;7.15;;;8.40;99.90;;;;;;5107845;27;20476;-88
2023/05/31 02:27:39;;;;;;;11.75;7.25;;;8.40;99.90;;;;;;5108899;27;20561;-88
2023/05/31 02:30:06;;;;;;;14.38;8.10;;;8.40;99.90;;;;;;5108503;27;20390;-87
2023/05/31 02:32:37;;;;;;;12.95;7.30;;;8.40;99.90;;;;;;5108943;27;20399;-88
2023/05/31 02:35:10;;;;;;;11.82;7.43;;;8.40;99.90;;;;;;5108480;27;20870;-87
2023/05/31 02:37:37;;;;;;;14.18;8.15;;;8.30;99.90;;;;;;5091135;27;20414;-88
2023/05/31 02:40:07;;;;;;;11.10;7.13;;;8.30;99.90;;;;;;5125497;27;20399;-88
2023/05/31 02:42:35;;;;;;;15.20;8.63;;;8.20;99.90;;;;;;5108447;28;20395;-88
2023/05/31 02:45:01;;;;;;;13.07;7.13;;;8.20;99.90;;;;;;5108585;28;20443;-87
2023/05/31 02:47:27;;;;;;;13.82;7.47;;;8.10;99.90;;;;;;5108386;28;20390;-87
2023/05/31 02:49:52;;;;;;;12.50;7.28;;;8.10;99.90;;;;;;5125177;28;20413;-88
2023/05/31 02:52:18;;;;;;;12.67;8.30;;;8.10;99.90;;;;;;5108405;28;20432;-88
2023/05/31 02:54:44;;;;;;;13.80;8.13;;;8.10;99.90;;;;;;5107656;28;20399;-88
2023/05/31 02:57:09;;;;;;;13.23;7.10;;;8.10;99.90;;;;;;5108401;28;21266;-89
2023/05/31 02:59:35;;;;;;;13.50;8.13;;;8.10;99.90;;;;;;5124594;28;20403;-88
2023/05/31 03:02:00;;;;;;;12.98;8.35;;;8.10;99.90;;;;;;5108139;28;20427;-88
2023/05/31 03:04:27;;;;;;;14.40;8.77;;;8.10;99.90;;;;;;5108106;28;20406;-86
2023/05/31 03:06:52;;;;;;;18.42;9.70;;;8.10;99.90;;;;;;5107910;28;20410;-87
2023/05/31 03:09:18;;;;;;;18.53;10.20;;;8.10;99.90;;;;;;5125390;28;20758;-88
2023/05/31 03:11:44;;;;;;;15.95;8.93;;;8.10;99.90;;;;;;5107549;28;20406;-88
2023/05/31 03:14:10;;;;;;;17.57;8.63;;;8.00;99.90;;;;;;5107858;28;20836;-87
2023/05/31 03:16:36;;;;;;;12.60;7.47;;;8.00;99.90;;;;;;5107487;28;20501;-86
2023/05/31 03:19:02;;;;;;;12.47;6.90;;;7.90;99.90;;;;;;5108164;28;20502;-88
2023/05/31 03:21:27;;;;;;;10.30;6.20;;;7.80;99.90;;;;;;5124696;28;20418;-87
2023/05/31 03:23:53;;;;;;;8.43;5.83;;;7.70;99.90;;;;;;5107670;28;20411;-87
2023/05/31 03:26:18;;;;;;;11.45;7.45;;;7.60;99.90;;;;;;5108074;28;20438;-87
2023/05/31 03:28:44;;;;;;;11.83;7.30;;;7.60;99.90;;;;;;5124600;28;20402;-88
2023/05/31 03:31:09;;;;;;;9.18;5.63;;;7.60;99.90;;;;;;5107750;28;20395;-88
2023/05/31 03:33:36;;;;;;;15.70;8.67;;;7.60;99.90;;;;;;5107862;28;20506;-88
2023/05/31 03:36:03;;;;;;;14.80;8.60;;;7.70;99.90;;;;;;5107938;28;20581;-88
2023/05/31 03:38:29;;;;;;;12.52;8.13;;;7.70;99.90;;;;;;5108746;27;20778;-87
2023/05/31 03:40:54;;;;;;;13.05;7.72;;;7.70;99.90;;;;;;5111701;27;20443;-88
2023/05/31 03:43:20;;;;;;;13.40;8.03;;;7.70;99.90;;;;;;5111109;27;20399;-86
2023/05/31 03:45:46;;;;;;;15.80;9.37;;;7.70;99.90;;;;;;5111580;27;20398;-87
2023/05/31 03:48:12;;;;;;;13.47;8.07;;;7.80;99.90;;;;;;5111415;27;20394;-87
2023/05/31 03:50:40;;;;;;;16.58;8.50;;;7.80;99.90;;;;;;5128229;27;20475;-88
2023/05/31 03:53:05;;;;;;;13.95;8.25;;;7.80;99.90;;;;;;5128263;27;20407;-87
2023/05/31 03:55:32;;;;;;;10.63;7.50;;;7.80;99.90;;;;;;5127878;27;20761;-87
2023/05/31 03:57:58;;;;;;;7.68;5.63;;;7.80;99.90;;;;;;5110851;27;20394;-87
2023/05/31 04:00:24;;;;;;;11.00;6.32;;;7.90;99.90;;;;;;5127760;27;20457;-87
2023/05/31 04:02:50;;;;;;;8.23;4.88;;;7.90;99.90;;;;;;5129597;27;20904;-87
2023/05/31 04:05:15;;;;;;;11.07;7.27;;;8.00;99.90;;;;;;5128330;27;20901;-87
2023/05/31 04:07:41;;;;;;;11.97;6.63;;;8.40;99.90;;;;;;5129360;27;20390;-86
2023/05/31 04:10:07;;;;;;;13.65;8.85;;;8.10;99.90;;;;;;5111161;27;20499;-87
2023/05/31 04:12:33;;;;;;;11.32;6.60;;;8.10;99.90;;;;;;5110211;27;20439;-87
2023/05/31 04:14:58;;;;;;;14.15;7.97;;;8.10;99.90;;;;;;5111237;27;20773;-87
2023/05/31 04:17:24;;;;;;;17.03;8.90;;;8.20;99.90;;;;;;5127302;27;20406;-88
2023/05/31 04:19:50;;;;;;;12.60;7.00;;;8.30;99.90;;;;;;5111223;27;20406;-87
2023/05/31 04:22:16;;;;;;;9.38;6.07;;;8.40;99.90;;;;;;5127553;27;20449;-87
2023/05/31 04:24:41;;;;;;;12.57;7.20;;;8.80;99.90;;;;;;5127180;27;20403;-87
2023/05/31 04:27:07;;;;;;;14.80;8.47;;;8.60;99.90;;;;;;5110746;27;20399;-87
2023/05/31 04:29:33;;;;;;;17.77;9.70;;;8.80;99.90;;;;;;5110556;27;20754;-86
2023/05/31 04:31:59;;;;;;;16.17;9.43;;;8.90;99.90;;;;;;5127529;27;20436;-86
2023/05/31 04:34:26;;;;;;;15.07;9.23;;;9.00;99.90;;;;;;5127441;27;20397;-88
2023/05/31 04:36:52;;;;;;;16.90;9.25;;;9.10;99.90;;;;;;5110607;27;20610;-88
2023/05/31 04:39:19;;;;;;;19.63;10.50;;;9.30;99.90;;;;;;5110131;27;20410;-87
2023/05/31 04:41:45;;;;;;;20.00;10.57;;;9.40;99.90;;;;;;5110388;27;20419;-88
2023/05/31 04:44:11;;;;;;;22.85;11.32;;;9.60;99.90;;;;;;5127281;27;20395;-88
2023/05/31 04:46:40;;;;;;;19.98;11.30;;;9.80;99.90;;;;;;5110564;27;20406;-88
2023/05/31 04:49:06;;;;;;;19.75;11.35;;;9.90;99.90;;;;;;5109788;27;20398;-89
2023/05/31 04:51:32;;;;;;;18.05;10.02;;;10.40;99.90;;;;;;5126720;27;20424;-89
2023/05/31 04:53:59;;;;;;;22.25;11.48;;;10.20;99.90;;;;;;5127288;27;20403;-88
2023/05/31 04:56:25;;;;;;;20.30;11.63;;;10.50;99.90;;;;;;5109543;27;20402;-88
2023/05/31 04:58:51;;;;;;;19.50;11.00;;;10.70;99.90;;;;;;5110246;27;20955;-88
2023/05/31 05:01:17;;;;;;;22.27;11.50;;;10.80;99.90;;;;;;5126877;27;20460;-88
2023/05/31 05:03:44;;;;;;;17.90;10.20;;;11.00;99.90;;;;;;5127301;27;20399;-88
2023/05/31 05:06:16;;;;;;;18.55;10.10;;;11.30;99.90;;;;;;5110078;27;20435;-87
2023/05/31 05:08:42;;;;;;;16.98;10.13;;;11.60;99.90;;;;;;5127727;27;20827;-88
2023/05/31 05:11:08;;;;;;;19.75;10.60;;;11.80;99.90;;;;;;5109718;27;20401;-87
2023/05/31 05:13:35;;;;;;;17.88;10.30;;;12.10;99.90;;;;;;5109355;27;20800;-88
2023/05/31 05:16:02;;;;;;;19.27;10.02;;;11.90;99.90;;;;;;5110265;27;20417;-88
2023/05/31 05:18:28;;;;;;;20.33;10.38;;;12.10;99.90;;;;;;5109425;27;20406;-88
2023/05/31 05:20:53;;;;;;;22.80;10.57;;;12.20;99.90;;;;;;5126692;27;20427;-88
2023/05/31 05:23:19;;;;;;;18.47;9.83;;;12.40;99.90;;;;;;5110970;27;20889;-87
2023/05/31 05:25:45;;;;;;;18.88;10.25;;;12.50;99.90;;;;;;5112476;27;20480;-88
2023/05/31 05:28:10;;;;;;;21.05;10.43;;;12.70;99.90;;;;;;5130509;27;20487;-88
2023/05/31 05:30:36;;;;;;;19.10;9.67;;;12.80;99.90;;;;;;5112362;27;20997;-89
2023/05/31 05:33:02;;;;;;;15.95;9.65;;;13.00;99.90;;;;;;5113165;27;20394;-90
2023/05/31 05:35:27;;;;;;;18.20;9.73;;;13.10;99.90;;;;;;5113072;27;20858;-88
2023/05/31 05:37:53;;;;;;;17.37;8.97;;;13.30;99.90;;;;;;5113232;27;20396;-88
2023/05/31 05:40:19;;;;;;;17.35;9.20;;;13.40;99.90;;;;;;5129600;27;20886;-88
2023/05/31 05:42:47;;;;;;;16.90;8.02;;;13.60;99.90;;;;;;5112638;27;20497;-88
2023/05/31 05:45:13;;;;;;;15.95;8.35;;;13.70;99.90;;;;;;5130035;27;20533;-88
2023/05/31 05:47:39;;;;;;;14.83;7.77;;;14.00;99.90;;;;;;5129306;27;20953;-89
2023/05/31 05:50:05;;;;;;;13.18;7.38;;;14.10;99.90;;;;;;5112467;27;20872;-87
2023/05/31 05:52:30;;;;;;;18.40;8.32;;;14.20;99.90;;;;;;5111968;27;20393;-89
2023/05/31 05:54:56;;;;;;;15.60;7.90;;;14.40;99.90;;;;;;5112843;27;20408;-88
2023/05/31 05:57:21;;;;;;;14.50;7.97;;;14.50;99.90;;;;;;5112582;27;20903;-89
2023/05/31 05:59:47;;;;;;;15.23;8.37;;;14.60;99.90;;;;;;5112606;27;20432;-89
2023/05/31 06:02:13;;;;;;;14.77;7.70;;;14.80;99.90;;;;;;5112214;27;20429;-88
2023/05/31 06:04:39;;;;;;;13.07;7.77;;;14.80;99.90;;;;;;5129180;27;20385;-89
2023/05/31 06:07:05;;;;;;;12.82;7.30;;;14.90;99.90;;;;;;5112387;27;20396;-88
2023/05/31 06:09:31;;;;;;;12.27;7.47;;;15.00;99.90;;;;;;5111824;27;20479;-87
2023/05/31 06:11:56;;;;;;;13.97;7.80;;;15.50;99.90;;;;;;5112251;27;20424;-89
2023/05/31 06:14:22;;;;;;;10.98;7.47;;;15.30;99.90;;;;;;5111811;27;20400;-87
2023/05/31 06:16:47;;;;;;;11.83;7.13;;;15.40;99.90;;;;;;5129173;27;20798;-87
2023/05/31 06:19:13;;;;;;;11.77;7.45;;;15.50;99.90;;;;;;5111842;27;20477;-87
2023/05/31 06:21:39;;;;;;;13.03;7.30;;;15.60;99.90;;;;;;5128911;27;20779;-87
2023/05/31 06:24:05;;;;;;;12.27;7.10;;;15.80;99.90;;;;;;5111722;27;20397;-87
2023/05/31 06:26:31;;;;;;;11.48;6.95;;;15.90;99.90;;;;;;5128493;27;20397;-88
2023/05/31 06:29:00;;;;;;;10.70;6.63;;;15.90;99.90;;;;;;5111815;27;20971;-87
2023/05/31 06:31:26;;;;;;;12.43;6.93;;;16.10;99.90;;;;;;5128605;27;20400;-89
2023/05/31 06:33:51;;;;;;;10.60;6.20;;;16.30;99.90;;;;;;5112010;27;20811;-89
2023/05/31 06:36:17;;;;;;;10.93;5.85;;;16.40;99.90;;;;;;5112132;27;20509;-88
2023/05/31 06:38:43;;;;;;;12.93;6.17;;;16.40;99.90;;;;;;5111924;27;20464;-89
2023/05/31 06:41:09;;;;;;;9.57;5.47;;;16.50;99.90;;;;;;5111995;27;20420;-89
2023/05/31 06:43:35;;;;;;;10.82;5.15;;;16.80;99.90;;;;;;5111485;27;20446;-88
2023/05/31 06:46:01;;;;;;;10.38;5.22;;;16.80;99.90;;;;;;5111652;27;20397;-88
2023/05/31 06:48:26;;;;;;;11.07;5.03;;;16.80;99.90;;;;;;5128770;27;20401;-88
2023/05/31 06:50:52;;;;;;;9.13;4.85;;;17.00;99.90;;;;;;5128836;27;20400;-88
2023/05/31 06:53:17;;;;;;;8.43;4.17;;;17.40;99.90;;;;;;5128400;27;20465;-87
2023/05/31 06:55:43;;;;;;;8.07;3.83;;;17.20;99.90;;;;;;5111836;27;20958;-88
2023/05/31 06:58:09;;;;;;;8.83;4.00;;;17.40;99.90;;;;;;5111960;27;20403;-89
2023/05/31 07:00:35;;;;;;;9.27;3.78;;;17.50;99.90;;;;;;5111992;27;20783;-88
2023/05/31 07:03:00;;;;;;;8.10;4.25;;;17.30;99.90;;;;;;5111598;27;20401;-88
2023/05/31 07:05:28;;;;;;;7.77;3.70;;;17.40;99.90;;;;;;5111235;27;20388;-88
2023/05/31 07:07:53;;;;;;;8.45;3.33;;;17.40;99.90;;;;;;5128441;27;20403;-88
2023/05/31 07:10:19;;;;;;;6.60;3.73;;;17.60;99.90;;;;;;5110916;27;20907;-88
2023/05/31 07:12:45;;;;;;;7.80;3.35;;;17.60;99.90;;;;;;5113826;27;20478;-88
2023/05/31 07:15:11;;;;;;;6.77;2.57;;;17.90;99.90;;;;;;5132220;27;20397;-91
2023/05/31 07:17:37;;;;;;;4.20;2.20;;;17.80;99.90;;;;;;5116523;27;20734;-89
2023/05/31 07:20:05;;;;;;;6.28;2.22;;;17.90;99.90;;;;;;5115775;27;20397;-88
2023/05/31 07:22:31;;;;;;;4.07;1.25;;;18.00;99.90;;;;;;5115291;27;20425;-89
2023/05/31 07:24:57;;;;;;;4.60;0.90;;;18.10;99.90;;;;;;5115240;27;20420;-89
2023/05/31 07:27:22;;;;;;;3.15;1.00;;;18.20;99.90;;;;;;5115240;27;21032;-89
2023/05/31 07:29:48;;;;;;;3.00;0.90;;;18.50;99.90;;;;;;5115820;27;20967;-89
2023/05/31 07:32:14;;;;;;;4.75;1.08;;;18.20;99.90;;;;;;5115022;27;20910;-90
2023/05/31 07:34:39;;;;;;;4.28;1.10;;;18.30;99.90;;;;;;5115805;27;20743;-89
2023/05/31 07:37:05;;;;;;;4.70;1.00;;;18.30;99.90;;;;;;5115140;27;20457;-88
2023/05/31 07:39:31;;;;;;;4.25;1.00;;;18.50;99.90;;;;;;5115476;27;20408;-91
2023/05/31 07:41:58;;;;;;;4.03;1.10;;;18.60;99.90;;;;;;5115482;27;20421;-89
2023/05/31 07:44:24;;;;;;;4.85;1.10;;;18.70;99.90;;;;;;5115034;27;20412;-89
2023/05/31 07:46:50;;;;;;;6.57;1.40;;;18.80;99.90;;;;;;5115390;27;20408;-89
2023/05/31 07:49:16;;;;;;;4.80;1.23;;;18.80;99.90;;;;;;5114583;27;20409;-88
2023/05/31 07:51:42;;;;;;;3.83;1.20;;;19.10;99.90;;;;;;5115116;27;20450;-89
2023/05/31 07:54:08;;;;;;;5.75;1.90;;;19.00;99.90;;;;;;5114625;27;20397;-88
2023/05/31 07:56:33;;;;;;;7.17;1.67;;;19.10;99.90;;;;;;5114875;27;20405;-88
2023/05/31 07:58:59;;;;;;;5.80;1.80;;;19.30;99.90;;;;;;5115266;27;20393;-89
2023/05/31 08:01:25;;;;;;;7.20;2.13;;;19.60;99.90;;;;;;5114953;27;20524;-90
2023/05/31 08:03:50;;;;;;;7.37;1.83;;;19.40;99.90;;;;;;5115018;27;20397;-90
2023/05/31 08:06:17;;;;;;;7.25;2.15;;;19.60;99.90;;;;;;5114068;27;20954;-87
2023/05/31 08:08:43;;;;;;;6.13;1.88;;;19.50;99.90;;;;;;5131825;27;20796;-89
2023/05/31 08:11:09;;;;;;;6.97;1.50;;;19.50;99.90;;;;;;5131348;27;20931;-89
2023/05/31 08:13:34;;;;;;;8.75;1.70;;;19.60;99.90;;;;;;5114439;27;20395;-88
2023/05/31 08:16:00;;;;;;;8.63;2.07;;;19.50;99.90;;;;;;5114859;27;20385;-89
2023/05/31 08:18:25;;;;;;;7.40;1.92;;;19.80;99.90;;;;;;5114155;27;20389;-88
2023/05/31 08:20:51;;;;;;;9.77;2.00;;;19.40;99.90;;;;;;5114340;27;20412;-89
2023/05/31 08:23:21;;;;;;;8.90;2.10;;;19.60;99.90;;;;;;5113625;27;20408;-90
2023/05/31 08:25:47;;;;;;;7.43;2.35;;;19.60;99.90;;;;;;5114938;27;20754;-89
2023/05/31 08:28:13;;;;;;;6.63;2.15;;;19.90;99.90;;;;;;5114556;27;20503;-91
2023/05/31 08:30:39;;;;;;;9.67;2.63;;;19.80;99.90;;;;;;5115000;27;20444;-89
2023/05/31 08:33:05;;;;;;;8.98;2.30;;;19.90;99.90;;;;;;5113961;27;20385;-88
2023/05/31 08:35:30;;;;;;;7.10;2.13;;;20.10;99.90;;;;;;5131837;27;20752;-90
2023/05/31 08:37:57;;;;;;;8.55;2.45;;;20.20;99.90;;;;;;5114315;27;20400;-89
2023/05/31 08:40:23;;;;;;;10.13;2.30;;;20.40;99.90;;;;;;5130923;27;20483;-88
2023/05/31 08:43:21;;;;;;;7.43;2.40;;;20.20;99.90;;;;;;5113931;27;20397;-89
2023/05/31 08:45:50;;;;;;;10.55;2.60;;;20.30;99.90;;;;;;5069507;27;20488;-90
2023/05/31 08:48:24;;;;;;;7.97;2.53;;;20.20;99.90;;;;;;5114222;27;20513;-90
2023/05/31 08:50:51;;;;;;;8.57;2.38;;;20.40;99.90;;;;;;5130968;27;20416;-90
2023/05/31 08:53:18;;;;;;;8.25;2.42;;;20.50;99.90;;;;;;5113683;27;20389;-90
2023/05/31 08:55:46;;;;;;;8.98;2.80;;;20.50;99.90;;;;;;5113868;27;20389;-89
2023/05/31 08:58:13;;;;;;;8.38;2.15;;;20.50;99.90;;;;;;5130440;27;20454;-88
2023/05/31 09:00:39;;;;;;;7.95;2.60;;;20.70;99.90;;;;;;5113838;27;20420;-89
2023/05/31 09:03:09;;;;;;;9.70;2.97;;;20.80;99.90;;;;;;5113209;27;20393;-89
2023/05/31 09:05:35;;;;;;;10.82;3.28;;;20.60;99.90;;;;;;5114533;27;20748;-91
2023/05/31 09:08:02;;;;;;;9.50;2.85;;;20.80;99.90;;;;;;5113474;27;20495;-89
2023/05/31 09:10:28;;;;;;;10.10;3.20;;;20.90;99.90;;;;;;5113548;27;20484;-89
2023/05/31 09:12:54;;;;;;;9.33;2.77;;;21.40;99.90;;;;;;5130394;27;20426;-89
2023/05/31 09:15:23;;;;;;;8.30;2.70;;;21.50;99.90;;;;;;5112923;27;20401;-90
2023/05/31 09:17:50;;;;;;;9.97;3.20;;;21.30;99.90;;;;;;5113338;27;20416;-89
2023/05/31 09:20:16;;;;;;;8.00;2.92;;;21.30;98.30;;;;;;5130037;27;20417;-90
2023/05/31 09:22:42;;;;;;;7.75;3.00;;;21.10;99.90;;;;;;5113656;27;20401;-90
2023/05/31 09:25:08;;;;;;;10.50;3.10;;;21.10;98.00;;;;;;5112868;27;20416;-90
2023/05/31 09:27:38;;;;;;;10.15;3.35;;;21.00;97.10;;;;;;5113864;27;20432;-90
2023/05/31 09:30:11;;;;;;;10.75;3.85;;;20.90;99.60;;;;;;5113806;27;20396;-89
2023/05/31 09:32:38;;;;;;;8.50;2.70;;;21.00;99.90;;;;;;5130065;27;20397;-89
2023/05/31 09:35:14;;;;;;;9.23;3.17;;;21.20;98.30;;;;;;5130203;27;20396;-89
2023/05/31 09:37:44;;;;;;;10.50;3.42;;;21.30;97.90;;;;;;5112492;27;20429;-90
2023/05/31 09:40:30;;;;;;;9.05;3.90;;;21.30;99.90;;;;;;5112975;27;20412;-89
2023/05/31 09:42:56;;;;;;;8.02;3.53;;;21.40;99.90;;;;;;5113202;27;20397;-88
2023/05/31 09:45:22;;;;;;;7.82;3.50;;;21.70;92.70;;;;;;5113287;27;20393;-90
2023/05/31 09:47:48;;;;;;;8.18;4.35;;;21.40;95.00;;;;;;5113562;27;20739;-89
2023/05/31 09:50:19;;;;;;;8.88;4.45;;;21.30;93.90;;;;;;5129749;27;20554;-89
2023/05/31 09:52:46;;;;;;;9.52;4.15;;;21.40;97.70;;;;;;5112442;27;20467;-90
2023/05/31 09:55:15;;;;;;;7.90;4.20;;;21.20;96.50;;;;;;5112727;27;21063;-89
2023/05/31 09:57:43;;;;;;;10.68;4.50;;;21.30;97.60;;;;;;5129816;27;20389;-89
2023/05/31 10:00:17;;;;;;;7.80;4.15;;;21.00;95.80;;;;;;5112444;27;20469;-90
2023/05/31 10:02:48;;;;;;;7.88;3.75;;;20.90;95.20;;;;;;5129706;27;20412;-89
2023/05/31 10:05:16;;;;;;;7.70;4.33;;;21.10;96.40;;;;;;5129067;27;20389;-89
2023/05/31 10:07:43;;;;;;;9.00;4.00;;;20.90;97.00;;;;;;5111202;27;20407;-91
2023/05/31 10:10:10;;;;;;;8.55;4.80;;;21.40;95.30;;;;;;5128989;27;20397;-90
2023/05/31 10:12:50;;;;;;;8.30;4.65;;;21.50;96.40;;;;;;5129948;27;20819;-90
2023/05/31 10:15:24;;;;;;;7.15;4.47;;;21.60;97.10;;;;;;5113232;27;20457;-90
2023/05/31 10:18:03;;;;;;;7.13;4.30;;;21.80;93.60;;;;;;5112724;27;20454;-89
2023/05/31 10:20:41;;;;;;;7.75;3.83;;;21.90;90.90;;;;;;5129149;27;20401;-92
2023/05/31 10:23:19;;;;;;;7.68;4.32;;;22.00;93.00;;;;;;5112355;27;20401;-89
2023/05/31 10:26:08;;;;;;;6.55;4.10;;;22.20;93.70;;;;;;5111503;27;20480;-88
2023/05/31 10:28:51;;;;;;;7.35;3.67;;;22.30;93.50;;;;;;5128924;27;20415;-89
2023/05/31 10:31:20;;;;;;;6.68;3.28;;;22.40;90.40;;;;;;5112034;27;20413;-90
2023/05/31 10:33:51;;;;;;;7.20;3.30;;;22.60;87.90;;;;;;5111497;27;20424;-89
2023/05/31 10:36:18;;;;;;;7.22;3.40;;;23.00;83.90;;;;;;5112195;27;20409;-91
2023/05/31 10:39:00;;;;;;;5.70;3.03;;;23.10;91.00;;;;;;5112147;27;20389;-90
2023/05/31 10:41:33;;;;;;;8.32;4.13;;;23.60;80.80;;;;;;5112041;27;20961;-90
2023/05/31 10:44:05;;;;;;;8.25;3.65;;;23.80;66.80;;;;;;5112788;27;20437;-92
2023/05/31 10:46:32;;;;;;;7.38;3.22;;;24.20;77.60;;;;;;5112801;27;20405;-90
2023/05/31 10:48:59;;;;;;;5.93;2.87;;;24.40;66.80;;;;;;5119165;27;20388;-91
2023/05/31 10:51:42;;;;;;;5.60;3.05;;;24.90;66.40;;;;;;5135677;27;20396;-91
2023/05/31 10:54:08;;;;;;;6.57;2.72;;;25.00;61.00;;;;;;5119147;27;20392;-89
2023/05/31 10:56:37;;;;;;;6.00;3.15;;;25.10;60.70;;;;;;5136164;27;20407;-90
2023/05/31 10:59:03;;;;;;;6.90;2.55;;;24.90;56.90;;;;;;5118672;27;20953;-91
2023/05/31 11:01:30;;;;;;;7.07;2.80;;;24.90;60.80;;;;;;5118954;27;20421;-90
2023/05/31 11:03:57;;;;;;;6.78;3.00;;;24.90;61.10;;;;;;5118859;27;20427;-90
2023/05/31 11:06:28;;;;;;;6.97;3.03;;;25.30;63.20;;;;;;5135836;27;20693;-90
2023/05/31 11:09:10;;;;;;;7.45;2.75;;;25.20;54.30;;;;;;5119005;27;20485;-91
2023/05/31 11:11:39;;;;;;;5.97;2.53;;;25.10;60.20;;;;;;5118899;27;20433;-91
2023/05/31 11:14:10;;;;;;;8.10;3.10;;;25.40;60.90;;;;;;5119418;27;20392;-92
2023/05/31 11:17:06;;;;;;;6.28;2.90;;;25.80;56.00;;;;;;5119015;27;20459;-91
2023/05/31 11:19:34;;;;;;;6.00;2.87;;;26.10;55.80;;;;;;5108582;27;20396;-91
2023/05/31 11:22:16;;;;;;;7.60;3.10;;;26.50;53.50;;;;;;5118595;27;20450;-89
2023/05/31 11:24:50;;;;;;;8.30;4.15;;;26.50;50.70;;;;;;5118116;27;20575;-89
2023/05/31 11:27:17;;;;;;;7.57;3.75;;;26.40;52.30;;;;;;5118228;27;20408;-91
2023/05/31 11:29:52;;;;;;;7.22;4.18;;;26.30;54.00;;;;;;5118167;27;20396;-92
2023/05/31 11:32:19;;;;;;;8.77;4.22;;;26.50;50.70;;;;;;5119122;27;20757;-92
2023/05/31 11:34:53;;;;;;;7.75;4.30;;;26.50;52.00;;;;;;5117969;27;20389;-90
2023/05/31 11:37:22;;;;;;;7.80;3.72;;;26.40;52.00;;;;;;5101838;27;22121;-89
2023/05/31 11:39:47;;;;;;;7.18;3.53;;;26.50;50.70;;;;;;5135933;27;20491;-90
2023/05/31 11:42:16;;;;;;;6.53;2.87;;;26.70;52.90;;;;;;5135238;27;20503;-90
2023/05/31 11:44:43;;;;;;;5.43;2.90;;;26.60;49.80;;;;;;5118461;27;20393;-90
2023/05/31 11:47:11;;;;;;;6.15;2.60;;;26.40;52.50;;;;;;5117691;27;20381;-91
2023/05/31 11:49:37;;;;;;;5.32;2.53;;;26.40;50.40;;;;;;5135750;27;20445;-91
2023/05/31 11:52:04;;;;;;;6.15;2.78;;;25.80;53.30;;;;;;5153457;27;20453;-89
2023/05/31 11:54:32;;;;;;;8.52;3.20;;;26.10;55.50;;;;;;5135265;27;20389;-89
2023/05/31 11:57:08;;;;;;;6.80;2.97;;;26.00;51.70;;;;;;5135153;27;20496;-89
2023/05/31 11:59:35;;;;;;;8.05;3.42;;;25.60;54.80;;;;;;5131737;27;20433;-89
2023/05/31 12:02:03;;;;;;;6.00;3.30;;;25.30;54.90;;;;;;5115225;27;20508;-91
2023/05/31 12:04:40;;;;;;;5.95;3.35;;;25.50;55.20;;;;;;5114488;27;20393;-90
2023/05/31 12:07:12;;;;;;;9.30;3.70;;;25.80;54.50;;;;;;5115027;27;20400;-91
2023/05/31 12:09:38;;;;;;;8.35;3.80;;;26.20;52.00;;;;;;5115091;27;20403;-90
2023/05/31 12:12:05;;;;;;;6.55;3.53;;;26.40;51.20;;;;;;5115240;27;20786;-91
2023/05/31 12:14:32;;;;;;;6.80;3.08;;;26.50;52.50;;;;;;5115076;27;20475;-91
2023/05/31 12:17:04;;;;;;;6.82;3.30;;;26.80;51.00;;;;;;5114996;27;20484;-91
2023/05/31 12:19:33;;;;;;;5.82;3.17;;;27.20;48.70;;;;;;5115028;27;20474;-90
2023/05/31 12:22:00;;;;;;;5.72;3.08;;;26.90;46.30;;;;;;5114083;27;20432;-89
2023/05/31 12:24:26;;;;;;;7.53;2.60;;;26.80;46.40;;;;;;5114637;27;20437;-91
2023/05/31 12:26:54;;;;;;;6.23;2.50;;;26.50;50.00;;;;;;5114691;27;20448;-90
2023/05/31 12:29:27;;;;;;;7.35;2.83;;;26.70;51.70;;;;;;5114854;27;20401;-92
2023/05/31 12:32:02;;;;;;;5.22;2.22;;;26.80;46.30;;;;;;5115056;27;20389;-90
2023/05/31 12:34:30;;;;;;;4.75;1.90;;;26.90;50.40;;;;;;5114211;27;20460;-89
2023/05/31 12:36:56;;;;;;;4.05;1.67;;;27.20;49.60;;;;;;5114569;27;20407;-90
2023/05/31 12:39:24;;;;;;;6.47;1.90;;;27.40;47.90;;;;;;5113929;27;20412;-92
2023/05/31 12:41:50;;;;;;;6.60;2.20;;;27.50;46.80;;;;;;5114540;27;20432;-93
2023/05/31 12:44:23;;;;;;;5.15;2.10;;;27.70;47.30;;;;;;5114703;27;20452;-92
2023/05/31 12:46:50;;;;;;;4.60;1.92;;;27.80;45.50;;;;;;5114535;27;20412;-91
2023/05/31 12:49:27;;;;;;;4.80;2.17;;;28.00;46.70;;;;;;5131831;27;20385;-92